Conroy, Iowa
Current Conditions -  °F | °C
As of 3:20 PM on Saturday 20 Dec 2014 (Local Time) from KCID Reporting Station
Haze Haze  
Wind Chill: 26°   Ceiling: 600
Heat Index: 32°   Visibility: 0.75mi
Dew Point: 31°   Wind: 7mph
Humidity: 96%   Direction: 140°SE
Pressure: 30.15"   Gusts: NA
Location:  41.73°N, 92°W
Report Text: KCID 202120Z 14006KT 3/4SM BR OVC006 00/M01 A3015 RMK AO2 CIG 003V008 T00001006 $
Loading
Personal Weather Stations






























Interactive Weather Map New forecast layout! Learn more

10-Day Weather Forecast

Advertisements
Track Severe Weather on mobile